Eureka Center, Wisconsin
Current Conditions -  °F | °C
As of 10:35 AM on Saturday 22 Nov 2014 (Local Time) from KOEO Reporting Station
Haze Haze  
Wind Chill: 29°   Ceiling: 700
Heat Index: 36°   Visibility: 3mi
Dew Point: 35°   Wind: 8mph
Humidity: 99%   Direction: 190°S
Pressure: 29.77"   Gusts: NA
Location:  45.4182°N, 92.6295°W
Report Text: KOEO 221635Z AUTO 19007KT 3SM BR OVC007 02/02 A2977 RMK AO2 T00200018
Loading
Personal Weather Stations






























Interactive Weather Map New forecast layout! Learn more

10-Day Weather Forecast

Advertisements
Track Severe Weather on mobile